sensor_id;sensor_type;location;lat;lon;timestamp;pressure;altitude;pressure_sealevel;temperature
74321;BMP280;62738;45.772;4.804;2023-03-01T00:02:01;100154.19;;;3.54
74321;BMP280;62738;45.772;4.804;2023-03-01T00:04:28;100147.97;;;3.47
74321;BMP280;62738;45.772;4.804;2023-03-01T00:06:55;100152.97;;;3.04
74321;BMP280;62738;45.772;4.804;2023-03-01T00:09:21;100152.91;;;2.88
74321;BMP280;62738;45.772;4.804;2023-03-01T00:11:48;100159.38;;;2.79
74321;BMP280;62738;45.772;4.804;2023-03-01T00:14:15;100155.69;;;3.16
74321;BMP280;62738;45.772;4.804;2023-03-01T00:16:45;100156.22;;;3.20
74321;BMP280;62738;45.772;4.804;2023-03-01T00:19:17;100159.19;;;3.05
74321;BMP280;62738;45.772;4.804;2023-03-01T00:21:45;100154.72;;;3.46
74321;BMP280;62738;45.772;4.804;2023-03-01T00:24:12;100149.47;;;3.21
74321;BMP280;62738;45.772;4.804;2023-03-01T00:26:38;100153.19;;;3.01
74321;BMP280;62738;45.772;4.804;2023-03-01T00:29:06;100147.72;;;3.29
74321;BMP280;62738;45.772;4.804;2023-03-01T00:31:33;100154.16;;;2.81
74321;BMP280;62738;45.772;4.804;2023-03-01T00:34:02;100156.38;;;2.77
74321;BMP280;62738;45.772;4.804;2023-03-01T00:36:32;100152.69;;;2.97
74321;BMP280;62738;45.772;4.804;2023-03-01T00:38:59;100152.97;;;3.16
74321;BMP280;62738;45.772;4.804;2023-03-01T00:41:26;100147.72;;;3.12
74321;BMP280;62738;45.772;4.804;2023-03-01T00:43:54;100150.47;;;3.34
74321;BMP280;62738;45.772;4.804;2023-03-01T00:46:23;100156.97;;;3.20
74321;BMP280;62738;45.772;4.804;2023-03-01T00:48:50;100154.69;;;3.24
74321;BMP280;62738;45.772;4.804;2023-03-01T00:51:25;100155.47;;;3.36
74321;BMP280;62738;45.772;4.804;2023-03-01T00:53:54;100144.22;;;3.51
74321;BMP280;62738;45.772;4.804;2023-03-01T00:56:21;100145.22;;;3.59
74321;BMP280;62738;45.772;4.804;2023-03-01T00:58:47;100140.69;;;3.89
74321;BMP280;62738;45.772;4.804;2023-03-01T01:01:17;100141.69;;;3.69
74321;BMP280;62738;45.772;4.804;2023-03-01T01:06:38;100151.97;;;3.35
74321;BMP280;62738;45.772;4.804;2023-03-01T01:09:06;100136.50;;;3.55
74321;BMP280;62738;45.772;4.804;2023-03-01T01:11:34;100136.47;;;3.49
74321;BMP280;62738;45.772;4.804;2023-03-01T01:14:03;100125.75;;;3.51
74321;BMP280;62738;45.772;4.804;2023-03-01T01:16:30;100123.53;;;3.38
74321;BMP280;62738;45.772;4.804;2023-03-01T01:18:57;100120.78;;;3.38
74321;BMP280;62738;45.772;4.804;2023-03-01T01:21:25;100119.78;;;3.41
74321;BMP280;62738;45.772;4.804;2023-03-01T01:23:52;100117.28;;;3.38
74321;BMP280;62738;45.772;4.804;2023-03-01T01:26:22;100111.81;;;3.27
74321;BMP280;62738;45.772;4.804;2023-03-01T01:28:49;100098.63;;;3.14
74321;BMP280;62738;45.772;4.804;2023-03-01T01:31:17;100095.88;;;3.20
74321;BMP280;62738;45.772;4.804;2023-03-01T01:33:44;100104.38;;;3.16
74321;BMP280;62738;45.772;4.804;2023-03-01T01:36:11;100106.34;;;2.99
74321;BMP280;62738;45.772;4.804;2023-03-01T01:38:38;100093.63;;;3.12
74321;BMP280;62738;45.772;4.804;2023-03-01T01:41:06;100084.16;;;3.08
74321;BMP280;62738;45.772;4.804;2023-03-01T01:43:38;100085.16;;;2.99
74321;BMP280;62738;45.772;4.804;2023-03-01T01:46:30;100097.63;;;3.00
74321;BMP280;62738;45.772;4.804;2023-03-01T01:49:01;100090.16;;;2.95
74321;BMP280;62738;45.772;4.804;2023-03-01T01:51:33;100081.66;;;2.71
74321;BMP280;62738;45.772;4.804;2023-03-01T01:54:16;100083.91;;;2.95
74321;BMP280;62738;45.772;4.804;2023-03-01T01:56:49;100087.41;;;3.01
74321;BMP280;62738;45.772;4.804;2023-03-01T01:59:16;100086.88;;;2.69
74321;BMP280;62738;45.772;4.804;2023-03-01T02:04:24;100079.19;;;3.01
74321;BMP280;62738;45.772;4.804;2023-03-01T02:06:57;100072.22;;;3.05
74321;BMP280;62738;45.772;4.804;2023-03-01T02:09:26;100070.94;;;3.06
74321;BMP280;62738;45.772;4.804;2023-03-01T02:11:53;100075.94;;;3.13
74321;BMP280;62738;45.772;4.804;2023-03-01T02:14:20;100079.19;;;3.12
74321;BMP280;62738;45.772;4.804;2023-03-01T02:16:47;100069.22;;;3.09
74321;BMP280;62738;45.772;4.804;2023-03-01T02:19:32;100068.72;;;3.16
74321;BMP280;62738;45.772;4.804;2023-03-01T02:22:23;100066.72;;;2.94
74321;BMP280;62738;45.772;4.804;2023-03-01T02:27:36;100062.47;;;2.76
74321;BMP280;62738;45.772;4.804;2023-03-01T02:30:03;100068.47;;;2.69
74321;BMP280;62738;45.772;4.804;2023-03-01T02:32:30;100059.97;;;2.67
74321;BMP280;62738;45.772;4.804;2023-03-01T02:34:57;100049.53;;;2.60
74321;BMP280;62738;45.772;4.804;2023-03-01T02:37:25;100048.78;;;2.60
74321;BMP280;62738;45.772;4.804;2023-03-01T02:39:59;100062.25;;;2.86
74321;BMP280;62738;45.772;4.804;2023-03-01T02:42:30;100050.00;;;2.75
74321;BMP280;62738;45.772;4.804;2023-03-01T02:44:58;100038.81;;;2.79
74321;BMP280;62738;45.772;4.804;2023-03-01T02:47:24;100041.06;;;2.58
74321;BMP280;62738;45.772;4.804;2023-03-01T02:49:51;100036.56;;;2.66
74321;BMP280;62738;45.772;4.804;2023-03-01T02:52:28;100036.56;;;2.77
74321;BMP280;62738;45.772;4.804;2023-03-01T02:55:07;100023.63;;;2.78
74321;BMP280;62738;45.772;4.804;2023-03-01T02:57:36;100021.88;;;3.03
74321;BMP280;62738;45.772;4.804;2023-03-01T03:00:07;100029.63;;;2.88
74321;BMP280;62738;45.772;4.804;2023-03-01T03:02:35;100024.13;;;2.82
74321;BMP280;62738;45.772;4.804;2023-03-01T03:05:16;100022.66;;;2.87
74321;BMP280;62738;45.772;4.804;2023-03-01T03:07:44;100009.44;;;2.68
74321;BMP280;62738;45.772;4.804;2023-03-01T03:10:15;100014.19;;;2.62
74321;BMP280;62738;45.772;4.804;2023-03-01T03:12:42;100011.91;;;2.55
74321;BMP280;62738;45.772;4.804;2023-03-01T03:15:10;100013.41;;;2.51
74321;BMP280;62738;45.772;4.804;2023-03-01T03:17:41;100016.66;;;2.66
74321;BMP280;62738;45.772;4.804;2023-03-01T03:20:13;100016.63;;;2.49
74321;BMP280;62738;45.772;4.804;2023-03-01T03:22:51;100009.06;;;1.99
74321;BMP280;62738;45.772;4.804;2023-03-01T03:25:18;100011.34;;;2.18
74321;BMP280;62738;45.772;4.804;2023-03-01T03:27:47;100012.78;;;1.96
74321;BMP280;62738;45.772;4.804;2023-03-01T03:30:16;100006.53;;;1.90
74321;BMP280;62738;45.772;4.804;2023-03-01T03:32:44;100007.75;;;1.89
74321;BMP280;62738;45.772;4.804;2023-03-01T03:35:27;100006.78;;;1.92
74321;BMP280;62738;45.772;4.804;2023-03-01T03:37:57;100004.53;;;1.80
74321;BMP280;62738;45.772;4.804;2023-03-01T03:43:00;100003.53;;;1.77
74321;BMP280;62738;45.772;4.804;2023-03-01T03:45:27;100004.50;;;1.74
74321;BMP280;62738;45.772;4.804;2023-03-01T03:47:54;99999.03;;;1.74
74321;BMP280;62738;45.772;4.804;2023-03-01T03:50:20;99997.06;;;1.80
74321;BMP280;62738;45.772;4.804;2023-03-01T03:52:47;100000.78;;;1.77
74321;BMP280;62738;45.772;4.804;2023-03-01T03:55:13;100002.56;;;1.97
74321;BMP280;62738;45.772;4.804;2023-03-01T03:57:41;99997.31;;;1.88
74321;BMP280;62738;45.772;4.804;2023-03-01T04:00:10;100015.47;;;1.85
74321;BMP280;62738;45.772;4.804;2023-03-01T04:02:40;100004.31;;;1.94
74321;BMP280;62738;45.772;4.804;2023-03-01T04:05:09;100005.56;;;1.99
74321;BMP280;62738;45.772;4.804;2023-03-01T04:07:36;100002.03;;;1.87
74321;BMP280;62738;45.772;4.804;2023-03-01T04:10:05;100000.72;;;1.66
74321;BMP280;62738;45.772;4.804;2023-03-01T04:12:33;100007.69;;;1.67
74321;BMP280;62738;45.772;4.804;2023-03-01T04:15:02;100005.66;;;1.62
74321;BMP280;62738;45.772;4.804;2023-03-01T04:17:44;100003.97;;;1.70
74321;BMP280;62738;45.772;4.804;2023-03-01T04:20:13;99983.41;;;1.86
74321;BMP280;62738;45.772;4.804;2023-03-01T04:22:40;99994.09;;;1.89
74321;BMP280;62738;45.772;4.804;2023-03-01T04:25:07;99987.09;;;1.77
74321;BMP280;62738;45.772;4.804;2023-03-01T04:27:34;99995.50;;;1.68
74321;BMP280;62738;45.772;4.804;2023-03-01T04:30:03;99990.25;;;1.64
74321;BMP280;62738;45.772;4.804;2023-03-01T04:32:29;99993.28;;;1.72
74321;BMP280;62738;45.772;4.804;2023-03-01T04:34:56;99992.56;;;1.71
74321;BMP280;62738;45.772;4.804;2023-03-01T04:37:23;100002.00;;;1.70
74321;BMP280;62738;45.772;4.804;2023-03-01T04:39:50;99992.69;;;1.51
74321;BMP280;62738;45.772;4.804;2023-03-01T04:42:17;99991.19;;;1.50
74321;BMP280;62738;45.772;4.804;2023-03-01T04:44:44;99991.88;;;1.40
74321;BMP280;62738;45.772;4.804;2023-03-01T04:47:12;99985.13;;;1.29
74321;BMP280;62738;45.772;4.804;2023-03-01T04:49:38;99989.22;;;1.56
74321;BMP280;62738;45.772;4.804;2023-03-01T04:52:05;99988.34;;;1.76
74321;BMP280;62738;45.772;4.804;2023-03-01T04:54:32;99992.50;;;1.66
74321;BMP280;62738;45.772;4.804;2023-03-01T04:57:00;99987.47;;;1.53
74321;BMP280;62738;45.772;4.804;2023-03-01T04:59:27;99990.19;;;1.48
74321;BMP280;62738;45.772;4.804;2023-03-01T05:01:55;99986.97;;;1.55
74321;BMP280;62738;45.772;4.804;2023-03-01T05:04:23;99991.09;;;1.76
74321;BMP280;62738;45.772;4.804;2023-03-01T05:06:49;99988.81;;;1.69
74321;BMP280;62738;45.772;4.804;2023-03-01T05:09:16;99984.50;;;1.57
74321;BMP280;62738;45.772;4.804;2023-03-01T05:11:43;99983.53;;;1.60
74321;BMP280;62738;45.772;4.804;2023-03-01T05:14:10;99978.91;;;1.77
74321;BMP280;62738;45.772;4.804;2023-03-01T05:16:37;99976.16;;;1.88
74321;BMP280;62738;45.772;4.804;2023-03-01T05:19:03;99979.88;;;1.74
74321;BMP280;62738;45.772;4.804;2023-03-01T05:21:44;99982.66;;;1.80
74321;BMP280;62738;45.772;4.804;2023-03-01T05:24:32;99977.19;;;1.91
74321;BMP280;62738;45.772;4.804;2023-03-01T05:26:59;99979.41;;;1.92
74321;BMP280;62738;45.772;4.804;2023-03-01T05:29:27;99977.91;;;1.91
74321;BMP280;62738;45.772;4.804;2023-03-01T05:31:57;99979.41;;;1.76
74321;BMP280;62738;45.772;4.804;2023-03-01T05:34:25;99977.03;;;1.52
74321;BMP280;62738;45.772;4.804;2023-03-01T05:36:53;99971.56;;;1.52
74321;BMP280;62738;45.772;4.804;2023-03-01T05:39:24;99975.44;;;1.82
74321;BMP280;62738;45.772;4.804;2023-03-01T05:41:53;99974.81;;;1.56
74321;BMP280;62738;45.772;4.804;2023-03-01T05:44:20;99972.13;;;1.67
74321;BMP280;62738;45.772;4.804;2023-03-01T05:46:47;99970.47;;;1.81
74321;BMP280;62738;45.772;4.804;2023-03-01T05:49:14;99971.97;;;1.82
74321;BMP280;62738;45.772;4.804;2023-03-01T05:51:41;99977.72;;;1.41
74321;BMP280;62738;45.772;4.804;2023-03-01T05:54:09;99979.16;;;1.79
74321;BMP280;62738;45.772;4.804;2023-03-01T05:56:36;99982.69;;;1.43
74321;BMP280;62738;45.772;4.804;2023-03-01T05:59:04;99978.81;;;1.60
74321;BMP280;62738;45.772;4.804;2023-03-01T06:01:34;99975.44;;;1.82
74321;BMP280;62738;45.772;4.804;2023-03-01T06:04:02;99975.06;;;1.52
74321;BMP280;62738;45.772;4.804;2023-03-01T06:06:29;99972.06;;;1.50
74321;BMP280;62738;45.772;4.804;2023-03-01T06:08:56;99980.22;;;1.45
74321;BMP280;62738;45.772;4.804;2023-03-01T06:11:23;99969.72;;;1.80
74321;BMP280;62738;45.772;4.804;2023-03-01T06:13:49;99969.00;;;1.96
74321;BMP280;62738;45.772;4.804;2023-03-01T06:16:16;99976.75;;;2.03
74321;BMP280;62738;45.772;4.804;2023-03-01T06:18:43;99969.47;;;1.95
74321;BMP280;62738;45.772;4.804;2023-03-01T06:21:09;99968.69;;;1.72
74321;BMP280;62738;45.772;4.804;2023-03-01T06:23:36;99961.91;;;1.62
74321;BMP280;62738;45.772;4.804;2023-03-01T06:26:08;99968.16;;;1.68
74321;BMP280;62738;45.772;4.804;2023-03-01T06:28:35;99968.69;;;1.72
74321;BMP280;62738;45.772;4.804;2023-03-01T06:31:02;99966.56;;;2.10
74321;BMP280;62738;45.772;4.804;2023-03-01T06:33:29;99965.06;;;2.14
74321;BMP280;62738;45.772;4.804;2023-03-01T06:35:56;99969.66;;;1.69
74321;BMP280;62738;45.772;4.804;2023-03-01T06:38:24;99966.09;;;1.52
74321;BMP280;62738;45.772;4.804;2023-03-01T06:40:52;99960.72;;;1.68
74321;BMP280;62738;45.772;4.804;2023-03-01T06:43:21;99972.19;;;1.78
74321;BMP280;62738;45.772;4.804;2023-03-01T06:45:47;99978.22;;;2.04
74321;BMP280;62738;45.772;4.804;2023-03-01T06:48:14;99976.50;;;2.18
74321;BMP280;62738;45.772;4.804;2023-03-01T06:50:41;99968.56;;;2.20
74321;BMP280;62738;45.772;4.804;2023-03-01T06:53:08;99971.53;;;2.11
74321;BMP280;62738;45.772;4.804;2023-03-01T06:55:35;99985.16;;;1.83
74321;BMP280;62738;45.772;4.804;2023-03-01T06:58:02;99993.50;;;1.63
74321;BMP280;62738;45.772;4.804;2023-03-01T07:00:29;99988.13;;;1.80
74321;BMP280;62738;45.772;4.804;2023-03-01T07:03:00;99988.38;;;1.93
74321;BMP280;62738;45.772;4.804;2023-03-01T07:05:29;99983.63;;;1.77
74321;BMP280;62738;45.772;4.804;2023-03-01T07:07:55;99979.00;;;2.11
74321;BMP280;62738;45.772;4.804;2023-03-01T07:10:22;99981.19;;;1.95
74321;BMP280;62738;45.772;4.804;2023-03-01T07:12:49;99978.97;;;2.05
74321;BMP280;62738;45.772;4.804;2023-03-01T07:15:16;99979.25;;;2.18
74321;BMP280;62738;45.772;4.804;2023-03-01T07:17:43;99975.56;;;2.27
74321;BMP280;62738;45.772;4.804;2023-03-01T07:20:11;99973.28;;;2.20
74321;BMP280;62738;45.772;4.804;2023-03-01T07:22:39;99973.53;;;2.16
74321;BMP280;62738;45.772;4.804;2023-03-01T07:25:07;99967.84;;;2.25
74321;BMP280;62738;45.772;4.804;2023-03-01T07:27:34;99974.53;;;2.30
74321;BMP280;62738;45.772;4.804;2023-03-01T07:30:01;99971.81;;;2.13
74321;BMP280;62738;45.772;4.804;2023-03-01T07:32:28;99977.81;;;2.84
74321;BMP280;62738;45.772;4.804;2023-03-01T07:34:54;99974.06;;;2.65
74321;BMP280;62738;45.772;4.804;2023-03-01T07:37:21;99978.31;;;2.94
74321;BMP280;62738;45.772;4.804;2023-03-01T07:39:48;99980.28;;;2.65
74321;BMP280;62738;45.772;4.804;2023-03-01T07:42:14;99979.56;;;2.87
74321;BMP280;62738;45.772;4.804;2023-03-01T07:44:41;99974.03;;;3.21
74321;BMP280;62738;45.772;4.804;2023-03-01T07:47:08;99976.31;;;2.89
74321;BMP280;62738;45.772;4.804;2023-03-01T07:49:34;99974.59;;;2.63
74321;BMP280;62738;45.772;4.804;2023-03-01T07:52:01;99970.56;;;2.81
74321;BMP280;62738;45.772;4.804;2023-03-01T07:54:28;99974.31;;;2.95
74321;BMP280;62738;45.772;4.804;2023-03-01T07:56:56;99973.59;;;2.72
74321;BMP280;62738;45.772;4.804;2023-03-01T07:59:23;99963.88;;;2.65
74321;BMP280;62738;45.772;4.804;2023-03-01T08:01:56;99969.09;;;2.86
74321;BMP280;62738;45.772;4.804;2023-03-01T08:04:23;99964.84;;;2.90
74321;BMP280;62738;45.772;4.804;2023-03-01T08:06:51;99961.63;;;2.86
74321;BMP280;62738;45.772;4.804;2023-03-01T08:09:18;99957.38;;;2.80
74321;BMP280;62738;45.772;4.804;2023-03-01T08:11:44;99954.66;;;2.74
74321;BMP280;62738;45.772;4.804;2023-03-01T08:14:11;99952.16;;;2.65
74321;BMP280;62738;45.772;4.804;2023-03-01T08:16:38;99954.69;;;2.63
74321;BMP280;62738;45.772;4.804;2023-03-01T08:19:06;99950.19;;;2.60
74321;BMP280;62738;45.772;4.804;2023-03-01T08:21:33;99944.19;;;2.89
74321;BMP280;62738;45.772;4.804;2023-03-01T08:24:05;99951.63;;;3.00
74321;BMP280;62738;45.772;4.804;2023-03-01T08:26:32;99957.13;;;2.83
74321;BMP280;62738;45.772;4.804;2023-03-01T08:29:00;99945.94;;;2.53
74321;BMP280;62738;45.772;4.804;2023-03-01T08:31:29;99944.69;;;2.21
74321;BMP280;62738;45.772;4.804;2023-03-01T08:33:59;99943.19;;;2.36
74321;BMP280;62738;45.772;4.804;2023-03-01T08:36:31;99938.44;;;2.93
74321;BMP280;62738;45.772;4.804;2023-03-01T08:38:59;99943.19;;;2.81
74321;BMP280;62738;45.772;4.804;2023-03-01T08:41:25;99935.97;;;2.89
74321;BMP280;62738;45.772;4.804;2023-03-01T08:43:53;99948.84;;;3.22
74321;BMP280;62738;45.772;4.804;2023-03-01T08:46:36;99945.94;;;2.70
74321;BMP280;62738;45.772;4.804;2023-03-01T08:49:08;99934.16;;;3.08
74321;BMP280;62738;45.772;4.804;2023-03-01T08:51:35;99940.63;;;3.17
74321;BMP280;62738;45.772;4.804;2023-03-01T08:54:10;99931.75;;;3.52
74321;BMP280;62738;45.772;4.804;2023-03-01T08:56:37;99934.59;;;3.81
74321;BMP280;62738;45.772;4.804;2023-03-01T08:59:04;99924.34;;;3.88
74321;BMP280;62738;45.772;4.804;2023-03-01T09:01:31;99926.31;;;3.40
74321;BMP280;62738;45.772;4.804;2023-03-01T09:03:58;99920.97;;;3.70
74321;BMP280;62738;45.772;4.804;2023-03-01T09:06:25;99925.34;;;3.38
74321;BMP280;62738;45.772;4.804;2023-03-01T09:08:51;99926.28;;;3.52
74321;BMP280;62738;45.772;4.804;2023-03-01T09:11:20;99921.34;;;3.44
74321;BMP280;62738;45.772;4.804;2023-03-01T09:13:47;99926.91;;;3.22
74321;BMP280;62738;45.772;4.804;2023-03-01T09:16:15;99920.22;;;3.70
74321;BMP280;62738;45.772;4.804;2023-03-01T09:18:44;99918.97;;;4.12
74321;BMP280;62738;45.772;4.804;2023-03-01T09:21:14;99910.16;;;4.19
74321;BMP280;62738;45.772;4.804;2023-03-01T09:23:45;99914.03;;;4.35
74321;BMP280;62738;45.772;4.804;2023-03-01T09:26:14;99910.25;;;3.67
74321;BMP280;62738;45.772;4.804;2023-03-01T09:28:42;99912.72;;;4.11
74321;BMP280;62738;45.772;4.804;2023-03-01T09:31:11;99917.81;;;3.96
74321;BMP280;62738;45.772;4.804;2023-03-01T09:33:41;99917.63;;;3.36
74321;BMP280;62738;45.772;4.804;2023-03-01T09:36:11;99931.03;;;3.51
74321;BMP280;62738;45.772;4.804;2023-03-01T09:38:38;99925.94;;;3.14
74321;BMP280;62738;45.772;4.804;2023-03-01T09:46:14;99908.09;;;3.95
74321;BMP280;62738;45.772;4.804;2023-03-01T09:49:25;99912.16;;;3.83
74321;BMP280;62738;45.772;4.804;2023-03-01T09:51:55;99910.06;;;4.30
74321;BMP280;62738;45.772;4.804;2023-03-01T09:54:22;99907.94;;;4.47
74321;BMP280;62738;45.772;4.804;2023-03-01T09:57:21;99914.38;;;4.55
74321;BMP280;62738;45.772;4.804;2023-03-01T10:00:00;99914.16;;;4.18
74321;BMP280;62738;45.772;4.804;2023-03-01T10:02:45;99915.91;;;4.51
74321;BMP280;62738;45.772;4.804;2023-03-01T10:10:55;99907.13;;;4.23
74321;BMP280;62738;45.772;4.804;2023-03-01T10:13:50;99903.22;;;4.42
74321;BMP280;62738;45.772;4.804;2023-03-01T10:16:28;99904.28;;;4.34
74321;BMP280;62738;45.772;4.804;2023-03-01T10:19:03;99894.66;;;4.51
74321;BMP280;62738;45.772;4.804;2023-03-01T10:21:31;99889.53;;;4.61
74321;BMP280;62738;45.772;4.804;2023-03-01T10:24:13;99889.16;;;4.51
74321;BMP280;62738;45.772;4.804;2023-03-01T10:26:48;99887.47;;;4.73
74321;BMP280;62738;45.772;4.804;2023-03-01T10:29:15;99880.66;;;4.98
74321;BMP280;62738;45.772;4.804;2023-03-01T10:32:00;99877.13;;;5.22
74321;BMP280;62738;45.772;4.804;2023-03-01T10:34:31;99873.56;;;5.08
74321;BMP280;62738;45.772;4.804;2023-03-01T10:37:09;99874.50;;;5.29
74321;BMP280;62738;45.772;4.804;2023-03-01T10:39:36;99877.56;;;4.88
74321;BMP280;62738;45.772;4.804;2023-03-01T10:42:05;99870.16;;;4.97
74321;BMP280;62738;45.772;4.804;2023-03-01T10:44:44;99875.00;;;4.66
74321;BMP280;62738;45.772;4.804;2023-03-01T10:49:51;99877.44;;;4.51
74321;BMP280;62738;45.772;4.804;2023-03-01T10:52:22;99869.16;;;5.00
74321;BMP280;62738;45.772;4.804;2023-03-01T10:54:55;99865.47;;;5.16
74321;BMP280;62738;45.772;4.804;2023-03-01T10:57:48;99862.47;;;5.51
74321;BMP280;62738;45.772;4.804;2023-03-01T11:02:47;99861.00;;;5.13
74321;BMP280;62738;45.772;4.804;2023-03-01T11:08:02;99858.47;;;5.15
74321;BMP280;62738;45.772;4.804;2023-03-01T11:10:32;99857.41;;;5.55
74321;BMP280;62738;45.772;4.804;2023-03-01T11:13:19;99854.88;;;5.20
74321;BMP280;62738;45.772;4.804;2023-03-01T11:18:29;99846.34;;;5.23
74321;BMP280;62738;45.772;4.804;2023-03-01T11:21:12;99855.13;;;5.03
74321;BMP280;62738;45.772;4.804;2023-03-01T11:23:39;99841.81;;;5.45
74321;BMP280;62738;45.772;4.804;2023-03-01T11:26:08;99843.38;;;5.21
74321;BMP280;62738;45.772;4.804;2023-03-01T11:28:40;99821.50;;;5.48
74321;BMP280;62738;45.772;4.804;2023-03-01T11:31:10;99827.19;;;5.69
74321;BMP280;62738;45.772;4.804;2023-03-01T11:33:48;99824.41;;;5.55
74321;BMP280;62738;45.772;4.804;2023-03-01T11:36:35;99821.53;;;5.80
74321;BMP280;62738;45.772;4.804;2023-03-01T11:42:11;99809.94;;;6.26
74321;BMP280;62738;45.772;4.804;2023-03-01T11:44:47;99803.19;;;6.40
74321;BMP280;62738;45.772;4.804;2023-03-01T11:47:26;99805.19;;;6.40
74321;BMP280;62738;45.772;4.804;2023-03-01T11:53:35;99798.66;;;5.53
74321;BMP280;62738;45.772;4.804;2023-03-01T12:02:00;99795.09;;;6.16
74321;BMP280;62738;45.772;4.804;2023-03-01T12:05:02;99772.19;;;6.48
74321;BMP280;62738;45.772;4.804;2023-03-01T12:10:27;99788.53;;;6.06
74321;BMP280;62738;45.772;4.804;2023-03-01T12:13:19;99784.72;;;6.22
74321;BMP280;62738;45.772;4.804;2023-03-01T12:16:03;99779.00;;;6.07
74321;BMP280;62738;45.772;4.804;2023-03-01T12:18:39;99783.28;;;5.76
74321;BMP280;62738;45.772;4.804;2023-03-01T12:24:03;99779.72;;;5.94
74321;BMP280;62738;45.772;4.804;2023-03-01T12:26:42;99771.25;;;6.06
74321;BMP280;62738;45.772;4.804;2023-03-01T12:32:05;99772.53;;;6.18
74321;BMP280;62738;45.772;4.804;2023-03-01T12:35:00;99770.53;;;6.31
74321;BMP280;62738;45.772;4.804;2023-03-01T12:43:07;99758.22;;;5.80
74321;BMP280;62738;45.772;4.804;2023-03-01T12:51:14;99751.66;;;6.35
74321;BMP280;62738;45.772;4.804;2023-03-01T12:53:46;99751.75;;;6.56
74321;BMP280;62738;45.772;4.804;2023-03-01T12:56:34;99733.22;;;6.44
74321;BMP280;62738;45.772;4.804;2023-03-01T12:59:20;99742.41;;;6.59
74321;BMP280;62738;45.772;4.804;2023-03-01T13:05:36;99738.28;;;6.66
74321;BMP280;62738;45.772;4.804;2023-03-01T13:08:01;99735.16;;;7.03
74321;BMP280;62738;45.772;4.804;2023-03-01T13:13:19;99729.81;;;7.19
74321;BMP280;62738;45.772;4.804;2023-03-01T13:15:46;99727.16;;;7.34
74321;BMP280;62738;45.772;4.804;2023-03-01T13:20:47;99728.56;;;6.72
74321;BMP280;62738;45.772;4.804;2023-03-01T13:39:05;99713.56;;;7.57
74321;BMP280;62738;45.772;4.804;2023-03-01T13:41:55;99704.84;;;7.73
74321;BMP280;62738;45.772;4.804;2023-03-01T13:44:37;99697.19;;;8.23
74321;BMP280;62738;45.772;4.804;2023-03-01T13:49:47;99695.00;;;8.29
74321;BMP280;62738;45.772;4.804;2023-03-01T13:52:39;99690.00;;;8.20
74321;BMP280;62738;45.772;4.804;2023-03-01T13:55:36;99694.75;;;8.12
74321;BMP280;62738;45.772;4.804;2023-03-01T13:58:33;99695.28;;;7.74
74321;BMP280;62738;45.772;4.804;2023-03-01T14:01:31;99694.19;;;7.77
74321;BMP280;62738;45.772;4.804;2023-03-01T14:03:59;99692.09;;;7.63
74321;BMP280;62738;45.772;4.804;2023-03-01T14:06:29;99684.28;;;7.53
74321;BMP280;62738;45.772;4.804;2023-03-01T14:14:36;99674.66;;;7.47
74321;BMP280;62738;45.772;4.804;2023-03-01T14:19:45;99672.78;;;7.42
74321;BMP280;62738;45.772;4.804;2023-03-01T14:22:27;99664.03;;;7.51
74321;BMP280;62738;45.772;4.804;2023-03-01T14:24:59;99670.66;;;7.55
74321;BMP280;62738;45.772;4.804;2023-03-01T14:27:30;99676.81;;;7.69
74321;BMP280;62738;45.772;4.804;2023-03-01T14:30:02;99675.16;;;6.96
74321;BMP280;62738;45.772;4.804;2023-03-01T14:32:30;99675.03;;;6.81
74321;BMP280;62738;45.772;4.804;2023-03-01T14:34:59;99673.53;;;6.80
74321;BMP280;62738;45.772;4.804;2023-03-01T14:37:34;99673.88;;;6.97
74321;BMP280;62738;45.772;4.804;2023-03-01T14:40:03;99681.66;;;6.86
74321;BMP280;62738;45.772;4.804;2023-03-01T14:42:36;99678.28;;;6.93
74321;BMP280;62738;45.772;4.804;2023-03-01T14:45:03;99679.66;;;6.86
74321;BMP280;62738;45.772;4.804;2023-03-01T14:47:33;99676.16;;;6.65
74321;BMP280;62738;45.772;4.804;2023-03-01T14:50:32;99681.97;;;6.61
74321;BMP280;62738;45.772;4.804;2023-03-01T14:52:58;99676.63;;;6.76
74321;BMP280;62738;45.772;4.804;2023-03-01T14:55:32;99671.47;;;6.60
74321;BMP280;62738;45.772;4.804;2023-03-01T14:58:04;99675.38;;;6.30
74321;BMP280;62738;45.772;4.804;2023-03-01T15:00:32;99674.25;;;6.60
74321;BMP280;62738;45.772;4.804;2023-03-01T15:03:06;99681.88;;;6.67
74321;BMP280;62738;45.772;4.804;2023-03-01T15:05:36;99669.66;;;6.96
74321;BMP280;62738;45.772;4.804;2023-03-01T15:08:03;99673.41;;;6.86
74321;BMP280;62738;45.772;4.804;2023-03-01T15:10:36;99679.22;;;7.16
74321;BMP280;62738;45.772;4.804;2023-03-01T15:13:23;99679.22;;;7.16
74321;BMP280;62738;45.772;4.804;2023-03-01T15:16:02;99685.25;;;6.94
74321;BMP280;62738;45.772;4.804;2023-03-01T15:18:29;99689.00;;;6.83
74321;BMP280;62738;45.772;4.804;2023-03-01T15:21:06;99675.22;;;6.83
74321;BMP280;62738;45.772;4.804;2023-03-01T15:23:33;99676.63;;;6.76
74321;BMP280;62738;45.772;4.804;2023-03-01T15:26:00;99675.63;;;6.87
74321;BMP280;62738;45.772;4.804;2023-03-01T15:28:30;99671.59;;;6.88
74321;BMP280;62738;45.772;4.804;2023-03-01T15:31:22;99677.53;;;6.92
74321;BMP280;62738;45.772;4.804;2023-03-01T15:33:49;99677.75;;;6.94
74321;BMP280;62738;45.772;4.804;2023-03-01T15:38:58;99677.69;;;6.73
74321;BMP280;62738;45.772;4.804;2023-03-01T15:44:13;99677.16;;;6.75
74321;BMP280;62738;45.772;4.804;2023-03-01T15:46:46;99668.56;;;6.78
74321;BMP280;62738;45.772;4.804;2023-03-01T15:51:56;99682.44;;;7.07
74321;BMP280;62738;45.772;4.804;2023-03-01T15:54:24;99686.06;;;7.02
74321;BMP280;62738;45.772;4.804;2023-03-01T15:56:52;99680.44;;;7.36
74321;BMP280;62738;45.772;4.804;2023-03-01T15:59:19;99680.91;;;7.47
74321;BMP280;62738;45.772;4.804;2023-03-01T16:01:46;99676.19;;;7.27
74321;BMP280;62738;45.772;4.804;2023-03-01T16:04:17;99685.53;;;7.24
74321;BMP280;62738;45.772;4.804;2023-03-01T16:06:52;99691.34;;;6.79
74321;BMP280;62738;45.772;4.804;2023-03-01T16:09:25;99686.44;;;6.64
74321;BMP280;62738;45.772;4.804;2023-03-01T16:11:53;99681.00;;;6.72
74321;BMP280;62738;45.772;4.804;2023-03-01T16:14:20;99688.22;;;6.96
74321;BMP280;62738;45.772;4.804;2023-03-01T16:16:47;99696.66;;;6.77
74321;BMP280;62738;45.772;4.804;2023-03-01T16:19:14;99689.19;;;6.85
74321;BMP280;62738;45.772;4.804;2023-03-01T16:21:42;99692.38;;;7.10
74321;BMP280;62738;45.772;4.804;2023-03-01T16:24:10;99697.03;;;7.15
74321;BMP280;62738;45.772;4.804;2023-03-01T16:26:37;99697.78;;;7.15
74321;BMP280;62738;45.772;4.804;2023-03-01T16:29:04;99700.84;;;7.12